createdAt,value
2023-05-10T00:01:42.603Z,13.19
2023-05-10T00:04:09.379Z,13.17
2023-05-10T00:06:36.364Z,13.22
2023-05-10T00:09:03.308Z,13.24
2023-05-10T00:11:30.052Z,13.27
2023-05-10T00:13:56.888Z,13.19
2023-05-10T00:16:23.854Z,13.19
2023-05-10T00:18:50.704Z,13.22
2023-05-10T00:21:20.902Z,13.26
2023-05-10T00:23:47.638Z,13.26
2023-05-10T00:26:14.868Z,13.27
2023-05-10T00:28:41.562Z,13.23
2023-05-10T00:31:08.350Z,13.26
2023-05-10T00:33:35.048Z,13.27
2023-05-10T00:36:01.816Z,13.30
2023-05-10T00:38:28.588Z,13.26
2023-05-10T00:40:55.701Z,13.26
2023-05-10T00:43:22.672Z,13.34
2023-05-10T00:45:49.894Z,13.26
2023-05-10T00:48:16.724Z,13.24
2023-05-10T00:50:44.390Z,13.28
2023-05-10T00:53:11.560Z,13.30
2023-05-10T00:55:38.837Z,13.24
2023-05-10T00:58:05.894Z,13.30
2023-05-10T01:00:34.573Z,13.30
2023-05-10T01:03:02.002Z,13.27
2023-05-10T01:05:28.952Z,13.24
2023-05-10T01:07:55.701Z,13.19
2023-05-10T01:10:22.665Z,13.27
2023-05-10T01:12:49.747Z,13.27
2023-05-10T01:15:17.408Z,13.24
2023-05-10T01:17:47.878Z,13.31
2023-05-10T01:20:16.542Z,13.30
2023-05-10T01:23:08.293Z,13.30
2023-05-10T01:26:08.620Z,13.27
2023-05-10T01:29:12.868Z,13.28
2023-05-10T01:32:01.460Z,13.30
2023-05-10T01:34:37.199Z,13.36
2023-05-10T01:37:12.334Z,13.36
2023-05-10T01:39:53.307Z,13.34
2023-05-10T01:42:27.264Z,13.34
2023-05-10T01:45:08.288Z,13.30
2023-05-10T01:47:50.176Z,13.31
2023-05-10T01:50:21.204Z,13.31
2023-05-10T01:53:00.440Z,13.26
2023-05-10T01:55:33.370Z,13.19
2023-05-10T01:58:07.432Z,13.15
2023-05-10T02:00:36.678Z,13.10
2023-05-10T02:03:08.437Z,13.09
2023-05-10T02:05:43.145Z,13.13
2023-05-10T02:08:10.928Z,13.12
2023-05-10T02:10:41.740Z,13.16
2023-05-10T02:13:10.134Z,13.13
2023-05-10T02:15:38.311Z,13.17
2023-05-10T02:18:06.894Z,13.07
2023-05-10T02:20:34.490Z,13.13
2023-05-10T02:23:03.715Z,13.07
2023-05-10T02:25:31.567Z,12.92
2023-05-10T02:27:59.048Z,13.00
2023-05-10T02:30:26.354Z,12.99
2023-05-10T02:32:53.750Z,13.02
2023-05-10T02:35:21.136Z,12.99
2023-05-10T02:37:49.120Z,12.97
2023-05-10T02:40:18.863Z,12.92
2023-05-10T02:42:48.631Z,12.99
2023-05-10T02:45:21.677Z,12.97
2023-05-10T02:47:49.323Z,12.97
2023-05-10T02:50:16.343Z,12.97
2023-05-10T02:52:55.453Z,13.00
2023-05-10T02:55:33.433Z,13.07
2023-05-10T02:58:02.983Z,13.10
2023-05-10T03:00:30.159Z,13.12
2023-05-10T03:02:57.166Z,13.20
2023-05-10T03:05:24.639Z,13.10
2023-05-10T03:07:52.593Z,13.19
2023-05-10T03:10:20.195Z,13.19
2023-05-10T03:13:24.720Z,13.16
2023-05-10T03:16:09.007Z,13.22
2023-05-10T03:18:42.875Z,13.26
2023-05-10T03:21:13.631Z,13.24
2023-05-10T03:23:54.890Z,13.23
2023-05-10T03:26:26.886Z,13.16
2023-05-10T03:28:54.881Z,13.26
2023-05-10T03:31:22.104Z,13.24
2023-05-10T03:33:50.584Z,13.33
2023-05-10T03:36:18.041Z,13.20
2023-05-10T03:38:44.807Z,13.24
2023-05-10T03:41:11.748Z,13.27
2023-05-10T03:43:38.501Z,13.27
2023-05-10T03:46:06.036Z,13.26
2023-05-10T03:48:35.990Z,13.27
2023-05-10T03:51:03.101Z,13.22
2023-05-10T03:53:29.920Z,13.30
2023-05-10T03:55:56.700Z,13.31
2023-05-10T03:58:23.535Z,13.36
2023-05-10T04:00:50.360Z,13.38
2023-05-10T04:03:17.491Z,13.34
2023-05-10T04:05:44.595Z,13.44
2023-05-10T04:08:11.257Z,13.36
2023-05-10T04:10:37.996Z,13.31
2023-05-10T04:13:05.221Z,13.44
2023-05-10T04:15:32.013Z,13.47
2023-05-10T04:17:58.964Z,13.43
2023-05-10T04:20:25.730Z,13.53
2023-05-10T04:22:52.678Z,13.53
2023-05-10T04:25:19.467Z,13.53
2023-05-10T04:27:46.272Z,13.51
2023-05-10T04:30:13.231Z,13.58
2023-05-10T04:32:40.049Z,13.61
2023-05-10T04:35:07.586Z,13.58
2023-05-10T04:37:37.897Z,13.62
2023-05-10T04:40:05.730Z,13.51
2023-05-10T04:42:32.405Z,13.58
2023-05-10T04:44:59.224Z,13.53
2023-05-10T04:47:25.959Z,13.58
2023-05-10T04:49:52.796Z,13.57
2023-05-10T04:52:19.532Z,13.59
2023-05-10T04:54:47.036Z,13.61
2023-05-10T04:57:13.919Z,13.62
2023-05-10T04:59:40.640Z,13.62
2023-05-10T05:02:10.680Z,13.69
2023-05-10T05:04:37.738Z,13.62
2023-05-10T05:07:04.607Z,13.61
2023-05-10T05:09:33.132Z,13.58
2023-05-10T05:11:59.968Z,13.59
2023-05-10T05:14:26.825Z,13.65
2023-05-10T05:16:57.777Z,13.64
2023-05-10T05:19:24.983Z,13.71
2023-05-10T05:21:51.688Z,13.64
2023-05-10T05:24:18.342Z,13.77
2023-05-10T05:26:45.159Z,13.67
2023-05-10T05:29:12.010Z,13.67
2023-05-10T05:31:38.716Z,13.67
2023-05-10T05:34:05.755Z,13.67
2023-05-10T05:36:32.978Z,13.68
2023-05-10T05:38:59.899Z,13.68
2023-05-10T05:41:27.144Z,13.72
2023-05-10T05:43:54.131Z,13.84
2023-05-10T05:46:21.095Z,13.88
2023-05-10T05:48:47.950Z,13.68
2023-05-10T05:51:14.630Z,13.69
2023-05-10T05:53:41.386Z,13.65
2023-05-10T05:56:09.331Z,13.67
2023-05-10T05:58:36.179Z,13.72
2023-05-10T06:01:03.313Z,13.81
2023-05-10T06:03:30.141Z,13.75
2023-05-10T06:05:56.975Z,13.69
2023-05-10T06:08:23.841Z,13.71
2023-05-10T06:10:50.718Z,13.75
2023-05-10T06:13:17.541Z,13.77
2023-05-10T06:15:44.533Z,13.68
2023-05-10T06:18:11.321Z,13.75
2023-05-10T06:20:38.139Z,13.71
2023-05-10T06:23:04.940Z,13.74
2023-05-10T06:25:31.652Z,13.74
2023-05-10T06:27:59.153Z,13.88
2023-05-10T06:33:50.350Z,13.72
2023-05-10T06:36:17.149Z,13.71
2023-05-10T06:38:44.076Z,13.65
2023-05-10T06:41:11.040Z,13.65
2023-05-10T06:43:41.155Z,13.67
2023-05-10T06:46:08.498Z,13.62
2023-05-10T06:48:35.319Z,13.67
2023-05-10T06:51:02.227Z,13.55
2023-05-10T06:53:29.009Z,13.54
2023-05-10T06:55:55.788Z,13.51
2023-05-10T06:58:22.503Z,13.50
2023-05-10T07:00:49.371Z,13.50
2023-05-10T07:03:16.404Z,13.40
2023-05-10T07:05:43.602Z,13.38
2023-05-10T07:08:10.741Z,13.36
2023-05-10T07:10:37.617Z,13.40
2023-05-10T07:13:04.853Z,13.34
2023-05-10T07:15:32.157Z,13.34
2023-05-10T07:17:59.124Z,13.46
2023-05-10T07:20:26.173Z,13.46
2023-05-10T07:22:53.028Z,13.47
2023-05-10T07:25:19.832Z,13.47
2023-05-10T07:27:46.670Z,13.53
2023-05-10T07:30:17.119Z,13.44
2023-05-10T07:32:43.904Z,13.61
2023-05-10T07:35:10.902Z,13.65
2023-05-10T07:37:37.775Z,13.61
2023-05-10T07:40:05.091Z,13.69
2023-05-10T07:42:31.889Z,13.71
2023-05-10T07:44:58.973Z,13.72
2023-05-10T07:47:25.967Z,13.84
2023-05-10T07:49:53.000Z,13.86
2023-05-10T07:52:22.394Z,13.85
2023-05-10T07:54:49.429Z,14.08
2023-05-10T07:57:18.816Z,14.10
2023-05-10T07:59:46.467Z,14.33
2023-05-10T08:02:13.522Z,14.34
2023-05-10T08:04:40.475Z,14.30
2023-05-10T08:07:07.220Z,14.29
2023-05-10T08:09:34.470Z,14.34
2023-05-10T08:12:01.633Z,14.33
2023-05-10T08:14:30.273Z,14.22
2023-05-10T08:16:57.643Z,14.23
2023-05-10T08:19:25.172Z,14.12
2023-05-10T08:21:52.211Z,14.25
2023-05-10T08:24:19.204Z,14.13
2023-05-10T08:26:46.014Z,14.08
2023-05-10T08:29:12.871Z,14.05
2023-05-10T08:31:39.849Z,14.04
2023-05-10T08:34:06.741Z,13.98
2023-05-10T08:36:33.498Z,13.98
2023-05-10T08:39:00.591Z,13.95
2023-05-10T08:41:27.926Z,14.12
2023-05-10T08:43:55.591Z,14.17
2023-05-10T08:46:24.073Z,14.26
2023-05-10T08:48:52.800Z,14.25
2023-05-10T08:51:23.137Z,14.17
2023-05-10T08:53:49.946Z,14.12
2023-05-10T08:56:18.902Z,14.02
2023-05-10T08:58:46.309Z,14.02
2023-05-10T09:01:14.997Z,13.98
2023-05-10T09:03:42.501Z,14.12
2023-05-10T09:06:09.528Z,14.32
2023-05-10T09:08:38.202Z,14.36
2023-05-10T09:11:05.217Z,14.40
2023-05-10T09:13:32.557Z,14.68
2023-05-10T09:16:04.446Z,14.77
2023-05-10T09:18:40.641Z,14.87
2023-05-10T09:21:07.383Z,14.83
2023-05-10T09:23:34.178Z,14.85
2023-05-10T09:26:08.017Z,14.85
2023-05-10T09:28:39.338Z,14.80
2023-05-10T09:31:06.458Z,15.14
2023-05-10T09:33:45.439Z,15.19
2023-05-10T09:36:12.670Z,15.22
2023-05-10T09:38:55.544Z,15.06
2023-05-10T09:41:26.355Z,15.16
2023-05-10T09:43:57.295Z,15.09
2023-05-10T09:46:25.461Z,14.94
2023-05-10T09:48:52.546Z,14.98
2023-05-10T09:51:28.082Z,14.63
2023-05-10T09:54:11.857Z,14.75
2023-05-10T09:56:41.066Z,14.59
2023-05-10T09:59:10.794Z,14.50
2023-05-10T10:01:38.307Z,14.40
2023-05-10T10:04:09.763Z,14.52
2023-05-10T10:06:38.626Z,14.54
2023-05-10T10:09:09.071Z,14.83
2023-05-10T10:11:37.719Z,14.92
2023-05-10T10:14:05.341Z,14.95
2023-05-10T10:16:33.377Z,15.08
2023-05-10T10:19:00.467Z,14.77
2023-05-10T10:21:28.067Z,14.83
2023-05-10T10:23:55.479Z,14.88
2023-05-10T10:26:22.674Z,15.05
2023-05-10T10:29:19.710Z,15.12
2023-05-10T10:31:52.115Z,15.11
2023-05-10T10:34:32.294Z,15.26
2023-05-10T10:37:04.837Z,15.40
2023-05-10T10:39:32.120Z,15.64
2023-05-10T10:41:59.783Z,16.13
2023-05-10T10:44:35.393Z,16.11
2023-05-10T10:47:20.017Z,15.84
2023-05-10T10:49:50.848Z,15.91
2023-05-10T10:52:34.800Z,15.57
2023-05-10T10:55:02.374Z,15.47
2023-05-10T10:57:32.205Z,15.69
2023-05-10T11:00:24.011Z,15.57
2023-05-10T11:02:52.858Z,16.31
2023-05-10T11:05:34.530Z,16.21
2023-05-10T11:08:07.924Z,16.13
2023-05-10T11:10:35.044Z,16.53
2023-05-10T11:13:03.779Z,16.99
2023-05-10T11:15:36.119Z,17.42
2023-05-10T11:18:24.915Z,16.92
2023-05-10T11:21:04.488Z,16.26
2023-05-10T11:23:48.924Z,16.00
2023-05-10T11:26:15.942Z,15.93
2023-05-10T11:28:44.218Z,16.00
2023-05-10T11:31:11.433Z,15.76
2023-05-10T11:33:54.665Z,15.77
2023-05-10T11:36:26.771Z,15.63
2023-05-10T11:38:54.640Z,15.69
2023-05-10T11:41:23.206Z,15.62
2023-05-10T11:43:56.744Z,15.86
2023-05-10T11:46:25.820Z,15.97
2023-05-10T11:48:55.352Z,16.28
2023-05-10T11:51:24.867Z,16.32
2023-05-10T11:53:56.728Z,16.51
2023-05-10T11:56:24.671Z,16.73
2023-05-10T11:58:56.974Z,17.42
2023-05-10T12:01:27.788Z,17.93
2023-05-10T12:04:00.974Z,17.99
2023-05-10T12:06:33.103Z,18.75
2023-05-10T12:09:00.509Z,18.63
2023-05-10T12:11:29.268Z,18.70
2023-05-10T12:13:57.813Z,18.09
2023-05-10T12:16:29.552Z,18.30
2023-05-10T12:19:04.637Z,18.54
2023-05-10T12:21:31.967Z,18.38
2023-05-10T12:24:07.558Z,19.02
2023-05-10T12:26:39.394Z,19.39
2023-05-10T12:29:20.288Z,19.38
2023-05-10T12:31:58.787Z,18.87
2023-05-10T12:34:32.398Z,18.82
2023-05-10T12:36:59.840Z,18.61
2023-05-10T12:39:45.894Z,19.43
2023-05-10T12:42:13.057Z,18.82
2023-05-10T12:44:40.496Z,19.23
2023-05-10T12:47:07.449Z,19.23
2023-05-10T12:49:35.319Z,19.39
2023-05-10T12:52:02.219Z,19.26
2023-05-10T12:54:29.126Z,19.60
2023-05-10T12:56:56.078Z,19.06
2023-05-10T12:59:24.022Z,19.50
2023-05-10T13:01:51.203Z,19.63
2023-05-10T13:04:18.123Z,19.09
2023-05-10T13:06:44.950Z,19.13
2023-05-10T13:09:11.713Z,19.22
2023-05-10T13:11:38.741Z,18.63
2023-05-10T13:14:05.632Z,18.52
2023-05-10T13:16:32.854Z,18.55
2023-05-10T13:18:59.946Z,19.12
2023-05-10T13:21:27.125Z,19.23
2023-05-10T13:23:54.734Z,18.87
2023-05-10T13:26:21.576Z,19.63
2023-05-10T13:28:50.055Z,19.60
2023-05-10T13:31:16.853Z,19.90
2023-05-10T13:33:43.724Z,19.66
2023-05-10T13:36:10.819Z,19.56
2023-05-10T13:38:37.691Z,19.32
2023-05-10T13:41:04.709Z,19.38
2023-05-10T13:43:31.756Z,19.82
2023-05-10T13:45:58.727Z,19.94
2023-05-10T13:48:25.757Z,19.67
2023-05-10T13:50:52.546Z,19.38
2023-05-10T13:53:19.727Z,19.33
2023-05-10T13:55:46.592Z,20.08
2023-05-10T13:58:13.281Z,19.46
2023-05-10T14:00:40.193Z,18.87
2023-05-10T14:03:08.155Z,18.63
2023-05-10T14:05:35.640Z,18.78
2023-05-10T14:08:02.663Z,18.99
2023-05-10T14:10:29.678Z,19.08
2023-05-10T14:12:56.790Z,18.87
2023-05-10T14:15:23.957Z,19.08
2023-05-10T14:17:50.794Z,19.57
2023-05-10T14:20:17.862Z,19.16
2023-05-10T14:22:44.766Z,19.53
2023-05-10T14:25:11.858Z,19.35
2023-05-10T14:27:38.554Z,19.61
2023-05-10T14:30:09.495Z,20.09
2023-05-10T14:32:37.944Z,20.05
2023-05-10T14:35:05.164Z,19.53
2023-05-10T14:37:32.350Z,19.16
2023-05-10T14:39:59.368Z,19.22
2023-05-10T14:42:26.317Z,18.94
2023-05-10T14:44:53.114Z,18.20
2023-05-10T14:47:20.022Z,18.38
2023-05-10T14:49:46.713Z,18.34
2023-05-10T14:52:13.461Z,18.38
2023-05-10T14:54:40.433Z,18.37
2023-05-10T14:57:08.484Z,18.47
2023-05-10T14:59:35.509Z,18.23
2023-05-10T15:02:02.739Z,18.20
2023-05-10T15:04:29.966Z,17.85
2023-05-10T15:07:00.454Z,18.09
2023-05-10T15:09:28.777Z,17.78
2023-05-10T15:11:56.491Z,17.79
2023-05-10T15:14:23.490Z,17.65
2023-05-10T15:16:50.399Z,17.61
2023-05-10T15:19:17.169Z,17.58
2023-05-10T15:21:45.707Z,17.50
2023-05-10T15:24:12.532Z,17.57
2023-05-10T15:26:39.291Z,17.59
2023-05-10T15:29:06.046Z,17.31
2023-05-10T15:31:33.331Z,17.44
2023-05-10T15:34:02.804Z,17.63
2023-05-10T15:36:29.674Z,17.44
2023-05-10T15:38:57.153Z,17.18
2023-05-10T15:41:24.727Z,17.26
2023-05-10T15:43:51.852Z,17.13
2023-05-10T15:46:18.631Z,17.23
2023-05-10T15:48:45.490Z,17.26
2023-05-10T15:51:12.471Z,17.26
2023-05-10T15:53:46.588Z,17.00
2023-05-10T15:56:19.853Z,16.97
2023-05-10T15:58:46.695Z,16.66
2023-05-10T16:01:13.626Z,16.45
2023-05-10T16:03:40.552Z,16.45
2023-05-10T16:06:07.368Z,16.28
2023-05-10T16:08:34.416Z,16.31
2023-05-10T16:11:01.275Z,16.10
2023-05-10T16:13:29.521Z,15.86
2023-05-10T16:15:58.550Z,15.35
2023-05-10T16:18:25.640Z,15.11
2023-05-10T16:20:53.736Z,15.01
2023-05-10T16:23:20.757Z,15.05
2023-05-10T16:25:47.551Z,15.02
2023-05-10T16:28:14.358Z,15.11
2023-05-10T16:30:41.374Z,15.05
2023-05-10T16:33:08.329Z,15.35
2023-05-10T16:35:35.196Z,15.31
2023-05-10T16:38:02.126Z,15.39
2023-05-10T16:40:29.207Z,15.94
2023-05-10T16:42:56.006Z,16.05
2023-05-10T16:45:22.982Z,16.83
2023-05-10T16:47:49.949Z,16.83
2023-05-10T16:50:17.532Z,16.96
2023-05-10T16:52:44.723Z,17.28
2023-05-10T16:55:11.728Z,17.61
2023-05-10T16:57:38.641Z,17.41
2023-05-10T17:00:06.098Z,17.28
2023-05-10T17:02:33.153Z,17.11
2023-05-10T17:05:00.020Z,16.92
2023-05-10T17:07:29.093Z,17.11
2023-05-10T17:09:56.107Z,17.24
2023-05-10T17:12:22.978Z,17.04
2023-05-10T17:14:49.786Z,16.89
2023-05-10T17:17:16.768Z,16.90
2023-05-10T17:19:46.708Z,16.71
2023-05-10T17:22:14.102Z,16.56
2023-05-10T17:24:40.988Z,16.76
2023-05-10T17:27:07.885Z,16.72
2023-05-10T17:29:37.178Z,16.94
2023-05-10T17:32:05.862Z,16.89
2023-05-10T17:34:33.080Z,16.61
2023-05-10T17:36:59.919Z,16.43
2023-05-10T17:39:27.086Z,16.22
2023-05-10T17:41:54.129Z,16.13
2023-05-10T17:44:21.389Z,15.93
2023-05-10T17:46:50.957Z,15.98
2023-05-10T17:49:18.029Z,15.78
2023-05-10T17:51:47.041Z,15.83
2023-05-10T18:18:24.577Z,15.77
2023-05-10T18:20:56.725Z,15.54
2023-05-10T18:23:24.833Z,15.54
2023-05-10T18:25:54.282Z,15.40
2023-05-10T18:31:38.599Z,15.36
2023-05-10T18:34:06.095Z,15.11
2023-05-10T18:36:33.629Z,14.95
2023-05-10T18:39:00.590Z,14.53
2023-05-10T18:41:27.447Z,14.52
2023-05-10T18:43:54.653Z,14.23
2023-05-10T18:46:21.842Z,14.27
2023-05-10T18:48:48.657Z,14.40
2023-05-10T18:51:18.465Z,14.38
2023-05-10T18:53:48.071Z,14.23
2023-05-10T18:56:15.356Z,14.26
2023-05-10T18:58:42.063Z,14.25
2023-05-10T19:01:20.210Z,14.19
2023-05-10T19:03:47.059Z,13.79
2023-05-10T19:06:14.585Z,13.86
2023-05-10T19:08:41.498Z,13.79
2023-05-10T19:11:08.580Z,13.89
2023-05-10T19:13:35.530Z,13.96
2023-05-10T19:16:05.778Z,13.99
2023-05-10T19:18:37.737Z,13.86
2023-05-10T19:21:09.430Z,13.89
2023-05-10T19:23:39.743Z,13.71
2023-05-10T19:26:06.753Z,13.75
2023-05-10T19:28:46.525Z,13.79
2023-05-10T19:31:41.706Z,13.75
2023-05-10T19:34:28.064Z,13.75
2023-05-10T19:36:56.045Z,13.69
2023-05-10T19:39:32.599Z,13.68
2023-05-10T19:42:04.491Z,13.78
2023-05-10T19:45:09.395Z,13.67
2023-05-10T19:50:24.985Z,13.64
2023-05-10T19:52:58.673Z,13.61
2023-05-10T19:55:28.392Z,13.68
2023-05-10T19:58:04.894Z,13.69
2023-05-10T20:05:18.081Z,13.50
2023-05-10T20:07:48.471Z,13.50
2023-05-10T20:10:16.185Z,13.61
2023-05-10T20:12:49.815Z,13.62
2023-05-10T20:15:20.291Z,13.67
2023-05-10T20:17:59.134Z,13.53
2023-05-10T20:20:45.680Z,13.48
2023-05-10T20:26:04.926Z,13.48
2023-05-10T20:28:31.763Z,13.44
2023-05-10T20:31:08.097Z,13.30
2023-05-10T20:33:40.585Z,13.38
2023-05-10T20:36:12.330Z,13.48
2023-05-10T20:39:06.989Z,13.34
2023-05-10T20:44:29.970Z,13.24
2023-05-10T20:46:57.222Z,13.20
